createdAt,value
2018-02-22T00:01:50.533Z,92867.98
2018-02-22T00:04:16.906Z,92864.64
2018-02-22T00:06:43.289Z,92873.00
2018-02-22T00:09:11.788Z,92871.98
2018-02-22T00:11:38.169Z,92871.88
2018-02-22T00:14:04.532Z,92868.77
2018-02-22T00:16:30.937Z,92871.92
2018-02-22T00:18:57.333Z,92877.11
2018-02-22T00:21:23.686Z,92869.59
2018-02-22T00:23:50.138Z,92872.59
2018-02-22T00:26:16.528Z,92867.45
2018-02-22T00:28:42.921Z,92861.47
2018-02-22T00:31:09.233Z,92862.16
2018-02-22T00:33:35.662Z,92858.63
2018-02-22T00:36:01.990Z,92852.58
2018-02-22T00:38:28.346Z,92849.63
2018-02-22T00:40:54.740Z,92849.48
2018-02-22T00:43:21.098Z,92855.73
2018-02-22T00:45:47.449Z,92849.59
2018-02-22T00:48:13.854Z,92850.11
2018-02-22T00:50:40.244Z,92843.45
2018-02-22T00:53:06.556Z,92846.41
2018-02-22T00:55:33.013Z,92852.72
2018-02-22T00:57:59.322Z,92849.33
2018-02-22T01:00:29.798Z,92841.86
2018-02-22T01:02:56.287Z,92841.66
2018-02-22T01:05:22.713Z,92838.72
2018-02-22T01:07:49.073Z,92843.32
2018-02-22T01:10:15.503Z,92839.08
2018-02-22T01:12:41.845Z,92836.78
2018-02-22T01:15:08.226Z,92843.81
2018-02-22T01:17:34.713Z,92838.58
2018-02-22T01:20:02.118Z,92840.77
2018-02-22T01:22:28.516Z,92832.72
2018-02-22T01:24:54.914Z,92839.88
2018-02-22T01:27:21.223Z,92836.91
2018-02-22T01:29:51.412Z,92831.64
2018-02-22T01:32:17.775Z,92831.88
2018-02-22T01:34:44.098Z,92832.53
2018-02-22T01:37:10.423Z,92838.17
2018-02-22T01:39:45.224Z,92840.30
2018-02-22T01:42:11.561Z,92840.00
2018-02-22T01:44:37.931Z,92841.48
2018-02-22T01:47:04.408Z,92843.53
2018-02-22T01:49:31.046Z,92840.50
2018-02-22T01:51:57.353Z,92847.48
2018-02-22T01:54:23.721Z,92837.92
2018-02-22T01:56:50.043Z,92843.20
2018-02-22T01:59:16.405Z,92841.73
2018-02-22T02:01:42.778Z,92839.03
2018-02-22T02:04:09.103Z,92841.45
2018-02-22T02:06:35.432Z,92841.38
2018-02-22T02:09:01.918Z,92836.27
2018-02-22T02:11:28.252Z,92830.60
2018-02-22T02:13:54.704Z,92830.39
2018-02-22T02:16:21.164Z,92830.34
2018-02-22T02:18:47.589Z,92826.20
2018-02-22T02:21:13.949Z,92827.48
2018-02-22T02:23:40.300Z,92826.42
2018-02-22T02:26:06.673Z,92824.52
2018-02-22T02:28:33.091Z,92822.69
2018-02-22T02:30:59.459Z,92826.73
2018-02-22T02:33:25.777Z,92831.72
2018-02-22T02:35:52.097Z,92835.44
2018-02-22T02:38:18.496Z,92830.00
2018-02-22T02:40:44.875Z,92823.98
2018-02-22T02:43:11.186Z,92821.14
2018-02-22T02:45:37.540Z,92824.56
2018-02-22T02:48:03.887Z,92822.34
2018-02-22T02:50:32.230Z,92821.47
2018-02-22T02:52:58.591Z,92817.55
2018-02-22T02:55:24.963Z,92815.63
2018-02-22T02:57:51.282Z,92820.15
2018-02-22T03:00:24.145Z,92813.15
2018-02-22T03:02:50.519Z,92814.89
2018-02-22T03:05:16.910Z,92812.30
2018-02-22T03:07:43.367Z,92811.23
2018-02-22T03:10:13.472Z,92808.35
2018-02-22T03:12:39.803Z,92807.48
2018-02-22T03:15:06.160Z,92811.48
2018-02-22T03:17:32.553Z,92803.40
2018-02-22T03:19:59.996Z,92810.89
2018-02-22T03:22:26.333Z,92807.00
2018-02-22T03:24:52.705Z,92803.63
2018-02-22T03:27:19.070Z,92807.51
2018-02-22T03:29:49.344Z,92804.72
2018-02-22T03:32:15.665Z,92807.85
2018-02-22T03:34:41.995Z,92807.95
2018-02-22T03:37:08.369Z,92806.57
2018-02-22T03:39:34.702Z,92806.67
2018-02-22T03:42:01.124Z,92807.22
2018-02-22T03:44:27.496Z,92808.20
2018-02-22T03:46:53.808Z,92813.08
2018-02-22T03:49:20.205Z,92808.82
2018-02-22T03:51:46.566Z,92813.13
2018-02-22T03:54:13.004Z,92808.92
2018-02-22T03:56:39.310Z,92810.66
2018-02-22T03:59:05.813Z,92811.94
2018-02-22T04:01:32.175Z,92809.11
2018-02-22T04:03:58.479Z,92805.69
2018-02-22T04:06:24.876Z,92811.94
2018-02-22T04:08:51.298Z,92809.02
2018-02-22T04:11:17.614Z,92811.60
2018-02-22T04:13:44.090Z,92811.23
2018-02-22T04:16:10.466Z,92809.53
2018-02-22T04:18:47.548Z,92811.66
2018-02-22T04:21:14.043Z,92806.06
2018-02-22T04:23:40.425Z,92806.47
2018-02-22T04:26:06.760Z,92809.44
2018-02-22T04:28:36.732Z,92808.27
2018-02-22T04:31:03.163Z,92818.97
2018-02-22T04:33:29.650Z,92818.16
2018-02-22T04:35:56.002Z,92813.19
2018-02-22T04:38:22.346Z,92817.49
2018-02-22T04:40:59.107Z,92812.27
2018-02-22T04:43:25.422Z,92817.19
2018-02-22T04:45:51.765Z,92820.82
2018-02-22T04:48:18.128Z,92815.76
2018-02-22T04:50:45.571Z,92825.33
2018-02-22T04:53:11.877Z,92822.53
2018-02-22T04:55:38.244Z,92826.05
2018-02-22T04:58:05.499Z,92821.40
2018-02-22T05:00:31.902Z,92819.70
2018-02-22T05:02:58.278Z,92826.57
2018-02-22T05:05:24.680Z,92834.25
2018-02-22T05:07:51.069Z,92831.02
2018-02-22T05:10:17.487Z,92831.75
2018-02-22T05:12:43.835Z,92827.23
2018-02-22T05:15:10.170Z,92834.35
2018-02-22T05:17:36.617Z,92840.50
2018-02-22T05:20:03.137Z,92848.67
2018-02-22T05:22:29.592Z,92852.78
2018-02-22T05:24:56.058Z,92851.14
2018-02-22T05:27:22.446Z,92844.77
2018-02-22T05:29:48.904Z,92847.20
2018-02-22T05:32:15.297Z,92850.94
2018-02-22T05:34:42.699Z,92852.22
2018-02-22T05:37:09.060Z,92855.08
2018-02-22T05:39:38.987Z,92855.30
2018-02-22T05:42:05.339Z,92856.11
2018-02-22T05:44:31.975Z,92863.39
2018-02-22T05:46:59.025Z,92865.75
2018-02-22T05:49:25.700Z,92868.21
2018-02-22T05:51:52.113Z,92865.30
2018-02-22T05:54:18.592Z,92867.01
2018-02-22T05:56:45.038Z,92864.28
2018-02-22T05:59:11.627Z,92865.66
2018-02-22T06:01:38.073Z,92865.69
2018-02-22T06:04:04.410Z,92866.77
2018-02-22T06:06:30.764Z,92875.65
2018-02-22T06:09:01.966Z,92864.73
2018-02-22T06:11:28.392Z,92870.98
2018-02-22T06:13:54.860Z,92873.98
2018-02-22T06:16:21.312Z,92869.22
2018-02-22T06:18:56.148Z,92868.84
2018-02-22T06:21:22.591Z,92870.41
2018-02-22T06:23:49.037Z,92870.25
2018-02-22T06:26:15.541Z,92872.63
2018-02-22T06:28:43.043Z,92862.09
2018-02-22T06:31:09.481Z,92869.98
2018-02-22T06:33:35.898Z,92874.70
2018-02-22T06:36:02.381Z,92880.06
2018-02-22T06:38:28.899Z,92890.03
2018-02-22T06:40:55.777Z,92890.63
2018-02-22T06:43:22.252Z,92884.45
2018-02-22T06:45:48.943Z,92885.57
2018-02-22T06:48:15.360Z,92878.16
2018-02-22T06:50:45.272Z,92875.27
2018-02-22T06:53:11.721Z,92866.22
2018-02-22T06:55:38.192Z,92866.33
2018-02-22T06:58:04.663Z,92864.52
2018-02-22T07:00:32.186Z,92864.85
2018-02-22T07:02:58.577Z,92871.19
2018-02-22T07:05:25.010Z,92879.89
2018-02-22T07:07:51.371Z,92891.90
2018-02-22T07:10:18.089Z,92901.90
2018-02-22T07:12:44.631Z,92893.59
2018-02-22T07:15:11.018Z,92897.69
2018-02-22T07:17:38.353Z,92902.81
2018-02-22T07:20:04.913Z,92904.32
2018-02-22T07:22:31.298Z,92901.41
2018-02-22T07:24:57.827Z,92895.84
2018-02-22T07:27:24.429Z,92898.31
2018-02-22T07:29:51.037Z,92900.98
2018-02-22T07:32:17.554Z,92902.24
2018-02-22T07:34:44.070Z,92909.28
2018-02-22T07:37:10.480Z,92912.77
2018-02-22T07:39:36.979Z,92911.59
2018-02-22T07:42:03.503Z,92913.98
2018-02-22T07:44:29.926Z,92916.37
2018-02-22T07:46:56.350Z,92909.66
2018-02-22T07:49:23.958Z,92909.59
2018-02-22T07:51:50.394Z,92913.30
2018-02-22T07:54:16.872Z,92909.81
2018-02-22T07:56:44.157Z,92907.49
2018-02-22T07:59:10.763Z,92913.91
2018-02-22T08:01:37.125Z,92914.89
2018-02-22T08:04:03.503Z,92908.02
2018-02-22T08:06:29.856Z,92907.41
2018-02-22T08:09:01.874Z,92903.55
2018-02-22T08:11:28.249Z,92910.46
2018-02-22T08:13:54.719Z,92904.58
2018-02-22T08:16:21.060Z,92907.55
2018-02-22T08:18:47.482Z,92910.39
2018-02-22T08:21:13.833Z,92911.49
2018-02-22T08:23:40.226Z,92912.89
2018-02-22T08:26:06.546Z,92912.75
2018-02-22T08:28:32.889Z,92912.50
2018-02-22T08:31:03.363Z,92911.83
2018-02-22T08:33:29.792Z,92919.13
2018-02-22T08:35:56.164Z,92914.98
2018-02-22T08:38:22.612Z,92911.48
2018-02-22T08:40:49.103Z,92915.45
2018-02-22T08:43:15.488Z,92919.74
2018-02-22T08:45:42.026Z,92915.11
2018-02-22T08:48:08.476Z,92918.50
2018-02-22T08:50:38.243Z,92916.57
2018-02-22T08:53:04.734Z,92924.45
2018-02-22T08:55:31.113Z,92921.11
2018-02-22T08:57:57.518Z,92920.97
2018-02-22T09:00:25.113Z,92921.63
2018-02-22T09:02:51.502Z,92923.81
2018-02-22T09:05:17.964Z,92922.60
2018-02-22T09:07:44.438Z,92926.91
2018-02-22T09:10:10.810Z,92918.25
2018-02-22T09:12:37.174Z,92925.03
2018-02-22T09:15:03.574Z,92925.12
2018-02-22T09:17:29.989Z,92924.97
2018-02-22T09:19:56.486Z,92932.70
2018-02-22T09:22:22.959Z,92934.57
2018-02-22T09:24:49.302Z,92930.39
2018-02-22T09:27:16.638Z,92927.94
2018-02-22T09:29:53.626Z,92932.70
2018-02-22T09:32:19.968Z,92944.69
2018-02-22T09:34:46.388Z,92942.41
2018-02-22T09:37:12.767Z,92947.34
2018-02-22T09:39:43.701Z,92951.95
2018-02-22T09:42:10.020Z,92946.22
2018-02-22T09:44:36.415Z,92949.27
2018-02-22T09:47:02.754Z,92951.33
2018-02-22T09:49:29.139Z,92950.07
2018-02-22T09:51:55.513Z,92946.13
2018-02-22T09:54:21.905Z,92948.15
2018-02-22T09:56:48.252Z,92951.05
2018-02-22T09:59:16.763Z,92950.81
2018-02-22T10:01:44.045Z,92956.52
2018-02-22T10:04:10.546Z,92944.56
2018-02-22T10:06:37.135Z,92946.38
2018-02-22T10:09:06.724Z,92952.98
2018-02-22T10:11:33.134Z,92947.98
2018-02-22T10:13:59.541Z,92957.53
2018-02-22T10:16:25.978Z,92955.34
2018-02-22T10:18:52.384Z,92960.17
2018-02-22T10:21:18.805Z,92957.59
2018-02-22T10:23:45.232Z,92954.95
2018-02-22T10:26:11.546Z,92961.11
2018-02-22T10:28:38.688Z,92958.39
2018-02-22T10:31:05.957Z,92959.66
2018-02-22T10:33:32.292Z,92957.87
2018-02-22T10:35:58.996Z,92958.50
2018-02-22T10:38:25.347Z,92950.39
2018-02-22T10:40:51.802Z,92953.18
2018-02-22T10:43:18.193Z,92951.41
2018-02-22T10:45:44.524Z,92953.41
2018-02-22T10:48:11.021Z,92951.25
2018-02-22T10:50:37.549Z,92944.91
2018-02-22T10:53:04.042Z,92939.95
2018-02-22T10:55:30.567Z,92943.56
2018-02-22T10:57:56.993Z,92943.58
2018-02-22T11:00:33.503Z,92942.77
2018-02-22T11:03:00.236Z,92934.47
2018-02-22T11:05:26.668Z,92943.23
2018-02-22T11:07:53.008Z,92947.75
2018-02-22T11:10:19.504Z,92947.88
2018-02-22T11:12:45.854Z,92942.22
2018-02-22T11:15:12.197Z,92947.58
2018-02-22T11:17:38.637Z,92946.50
2018-02-22T11:20:06.107Z,92947.16
2018-02-22T11:22:32.465Z,92943.58
2018-02-22T11:24:58.863Z,92941.22
2018-02-22T11:27:25.291Z,92943.95
2018-02-22T11:30:04.157Z,92941.12
2018-02-22T11:32:30.557Z,92936.09
2018-02-22T11:34:56.938Z,92937.09
2018-02-22T11:37:23.444Z,92932.38
2018-02-22T11:39:55.317Z,92936.72
2018-02-22T11:42:21.684Z,92934.00
2018-02-22T11:44:48.246Z,92924.17
2018-02-22T11:47:14.934Z,92932.31
2018-02-22T11:49:45.540Z,92933.25
2018-02-22T11:52:11.944Z,92926.00
2018-02-22T11:54:38.311Z,92922.88
2018-02-22T11:57:04.750Z,92924.31
2018-02-22T11:59:32.192Z,92926.98
2018-02-22T12:01:58.551Z,92928.27
2018-02-22T12:04:24.889Z,92924.28
2018-02-22T12:06:51.422Z,92921.70
2018-02-22T12:09:19.955Z,92923.81
2018-02-22T12:11:46.338Z,92916.32
2018-02-22T12:14:12.750Z,92915.29
2018-02-22T12:16:39.176Z,92912.85
2018-02-22T12:19:09.800Z,92917.19
2018-02-22T12:21:36.735Z,92917.17
2018-02-22T12:24:03.233Z,92910.07
2018-02-22T12:26:29.713Z,92906.42
2018-02-22T12:29:00.042Z,92904.23
2018-02-22T12:31:26.557Z,92902.31
2018-02-22T12:33:52.944Z,92904.14
2018-02-22T12:36:19.392Z,92903.77
2018-02-22T12:38:45.762Z,92901.88
2018-02-22T12:41:29.711Z,92903.01
2018-02-22T12:43:56.030Z,92906.41
2018-02-22T12:46:22.402Z,92914.34
2018-02-22T12:48:48.958Z,92914.39
2018-02-22T12:51:22.053Z,92908.27
2018-02-22T12:53:48.482Z,92915.00
2018-02-22T12:56:14.907Z,92914.20
2018-02-22T12:58:41.267Z,92910.33
2018-02-22T13:01:21.846Z,92908.11
2018-02-22T13:03:48.188Z,92910.05
2018-02-22T13:06:14.611Z,92912.86
2018-02-22T13:08:40.962Z,92909.97
2018-02-22T13:11:13.779Z,92913.63
2018-02-22T13:13:40.159Z,92916.42
2018-02-22T13:16:06.572Z,92913.21
2018-02-22T13:18:32.900Z,92909.62
2018-02-22T13:20:59.268Z,92905.09
2018-02-22T13:23:25.661Z,92912.61
2018-02-22T13:25:52.042Z,92912.86
2018-02-22T13:28:18.387Z,92913.27
2018-02-22T13:30:48.845Z,92915.00
2018-02-22T13:33:28.135Z,92915.44
2018-02-22T13:35:54.536Z,92916.78
2018-02-22T13:38:33.163Z,92921.40
2018-02-22T13:40:59.686Z,92918.98
2018-02-22T13:43:26.083Z,92917.84
2018-02-22T13:45:52.437Z,92930.03
2018-02-22T13:48:18.842Z,92931.58
2018-02-22T13:50:57.574Z,92925.89
2018-02-22T13:53:23.982Z,92924.41
2018-02-22T13:55:50.426Z,92928.89
2018-02-22T13:58:16.826Z,92925.22
2018-02-22T14:00:56.244Z,92934.54
2018-02-22T14:03:22.660Z,92930.23
2018-02-22T14:05:49.381Z,92931.00
2018-02-22T14:08:28.068Z,92935.33
2018-02-22T14:10:54.884Z,92929.84
2018-02-22T14:13:21.216Z,92937.53
2018-02-22T14:15:47.610Z,92934.39
2018-02-22T14:18:13.998Z,92938.41
2018-02-22T14:20:42.580Z,92941.04
2018-02-22T14:23:09.110Z,92946.41
2018-02-22T14:25:35.474Z,92949.59
2018-02-22T14:28:01.843Z,92955.22
2018-02-22T14:30:36.978Z,92951.42
2018-02-22T14:33:03.515Z,92951.10
2018-02-22T14:35:30.014Z,92954.02
2018-02-22T14:37:56.650Z,92950.41
2018-02-22T14:40:30.657Z,92960.51
2018-02-22T14:42:57.125Z,92953.07
2018-02-22T14:45:23.480Z,92956.11
2018-02-22T14:47:49.873Z,92959.02
2018-02-22T14:50:17.505Z,92961.80
2018-02-22T14:52:43.829Z,92966.95
2018-02-22T14:55:10.131Z,92956.11
2018-02-22T14:57:36.484Z,92959.40
2018-02-22T15:00:06.116Z,92960.23
2018-02-22T15:02:32.480Z,92961.19
2018-02-22T15:04:58.863Z,92964.77
2018-02-22T15:07:25.244Z,92962.12
2018-02-22T15:10:09.386Z,92963.88
2018-02-22T15:12:36.444Z,92962.53
2018-02-22T15:15:03.212Z,92959.69
2018-02-22T15:17:32.134Z,92956.55
2018-02-22T15:19:59.496Z,92951.30
2018-02-22T15:22:26.149Z,92958.52
2018-02-22T15:24:53.719Z,92960.11
2018-02-22T15:27:20.419Z,92962.27
2018-02-22T15:29:55.499Z,92970.90
2018-02-22T15:32:22.123Z,92977.56
2018-02-22T15:34:49.729Z,92975.25
2018-02-22T15:37:16.244Z,92972.72
2018-02-22T15:39:42.883Z,92976.52
2018-02-22T15:42:09.738Z,92969.79
2018-02-22T15:44:36.628Z,92979.61
2018-02-22T15:47:03.540Z,92976.13
2018-02-22T15:49:31.835Z,92978.21
2018-02-22T15:51:58.757Z,92980.77
2018-02-22T15:54:26.937Z,92990.47
2018-02-22T15:56:53.820Z,92992.17
2018-02-22T15:59:20.477Z,92994.59
2018-02-22T16:01:46.999Z,92992.77
2018-02-22T16:04:13.405Z,92996.44
2018-02-22T16:06:41.155Z,92997.61
2018-02-22T16:09:19.549Z,92997.11
2018-02-22T16:11:49.538Z,92999.48
2018-02-22T16:14:16.542Z,93004.28
2018-02-22T16:16:43.886Z,93004.63
2018-02-22T16:19:10.740Z,93003.53
2018-02-22T16:21:37.259Z,92997.69
2018-02-22T16:24:03.705Z,93005.47
2018-02-22T16:26:30.307Z,93004.30
2018-02-22T16:28:56.777Z,93006.69
2018-02-22T16:31:30.379Z,93007.62
2018-02-22T16:33:56.843Z,93010.03
2018-02-22T16:36:23.212Z,93009.14
2018-02-22T16:38:49.656Z,93020.89
2018-02-22T16:41:16.117Z,93020.60
2018-02-22T16:43:42.525Z,93024.87
2018-02-22T16:46:09.054Z,93023.94
2018-02-22T16:48:35.596Z,93021.65
2018-02-22T16:51:03.361Z,93028.38
2018-02-22T16:53:30.215Z,93033.45
2018-02-22T16:55:56.687Z,93033.50
2018-02-22T16:58:23.136Z,93033.56
2018-02-22T17:00:50.030Z,93039.28
2018-02-22T17:03:16.425Z,93037.17
2018-02-22T17:05:43.251Z,93043.09
2018-02-22T17:08:09.857Z,93042.14
2018-02-22T17:10:36.955Z,93043.08
2018-02-22T17:13:03.811Z,93044.29
2018-02-22T17:15:30.235Z,93050.95
2018-02-22T17:17:57.548Z,93054.23
2018-02-22T17:20:24.605Z,93049.14
2018-02-22T17:22:51.312Z,93053.63
2018-02-22T17:25:17.654Z,93051.41
2018-02-22T17:27:50.241Z,93057.38
2018-02-22T17:30:29.132Z,93066.60
2018-02-22T17:32:55.764Z,93064.91
2018-02-22T17:35:28.422Z,93067.83
2018-02-22T17:37:58.937Z,93065.88
2018-02-22T17:40:28.877Z,93069.46
2018-02-22T17:42:55.326Z,93069.98
2018-02-22T17:45:21.944Z,93067.95
2018-02-22T17:47:48.575Z,93075.72
2018-02-22T17:50:15.155Z,93070.35
2018-02-22T17:52:41.603Z,93073.96
2018-02-22T17:55:08.193Z,93077.94
2018-02-22T17:57:34.725Z,93073.69
2018-02-22T18:00:02.417Z,93081.23
2018-02-22T18:02:29.165Z,93082.91
2018-02-22T18:04:55.754Z,93080.23
2018-02-22T18:07:22.211Z,93083.08
2018-02-22T18:09:48.747Z,93087.05
2018-02-22T18:12:15.202Z,93088.82
2018-02-22T18:14:42.442Z,93086.63
2018-02-22T18:17:09.469Z,93094.47
2018-02-22T18:19:36.012Z,93090.47
2018-02-22T18:22:02.551Z,93088.02
2018-02-22T18:24:28.986Z,93090.05
2018-02-22T18:26:55.513Z,93082.86
2018-02-22T18:29:22.183Z,93085.88
2018-02-22T18:31:48.611Z,93088.23
